createdAt,value
2017-05-20T00:00:08.197Z,99.99
2017-05-20T00:10:08.406Z,99.99
2017-05-20T00:20:08.277Z,99.99
2017-05-20T00:30:08.241Z,99.99
2017-05-20T00:40:08.215Z,99.99
2017-05-20T00:50:08.196Z,99.99
2017-05-20T01:00:08.208Z,99.99
2017-05-20T01:10:08.299Z,99.99
2017-05-20T01:20:08.250Z,99.99
2017-05-20T01:30:08.316Z,99.99
2017-05-20T01:40:08.204Z,99.99
2017-05-20T01:50:08.231Z,99.99
2017-05-20T02:00:08.291Z,99.99
2017-05-20T02:10:08.262Z,99.99
2017-05-20T02:20:08.226Z,99.99
2017-05-20T02:30:08.191Z,99.99
2017-05-20T02:40:08.202Z,99.99
2017-05-20T02:50:08.324Z,99.99
2017-05-20T03:00:08.295Z,99.99
2017-05-20T03:10:08.231Z,99.99
2017-05-20T03:20:08.210Z,99.99
2017-05-20T03:30:08.249Z,99.99
2017-05-20T03:40:08.184Z,99.99
2017-05-20T03:50:08.174Z,99.99
2017-05-20T04:00:08.238Z,99.99
2017-05-20T04:10:08.185Z,99.99
2017-05-20T04:20:08.263Z,99.99
2017-05-20T04:30:13.488Z,99.99
2017-05-20T04:40:14.187Z,99.99
2017-05-20T04:50:12.875Z,99.99
2017-05-20T05:00:12.100Z,99.99
2017-05-20T05:10:08.260Z,99.99
2017-05-20T05:20:08.293Z,99.99
2017-05-20T05:30:08.313Z,99.99
2017-05-20T05:40:08.290Z,99.99
2017-05-20T05:50:08.228Z,99.99
2017-05-20T06:00:08.279Z,99.99
2017-05-20T06:10:08.170Z,99.99
2017-05-20T06:20:08.242Z,99.99
2017-05-20T06:30:08.266Z,99.99
2017-05-20T06:40:08.205Z,85.32
2017-05-20T06:50:08.315Z,76.56
2017-05-20T07:00:08.248Z,70.25
2017-05-20T07:10:08.202Z,66.3
2017-05-20T07:20:08.200Z,65.85
2017-05-20T07:30:08.231Z,67.46
2017-05-20T07:40:08.292Z,66.55
2017-05-20T07:50:08.262Z,60.23
2017-05-20T08:00:08.210Z,56.93
2017-05-20T08:10:08.197Z,58.57
2017-05-20T08:20:08.202Z,50.33
2017-05-20T08:30:08.234Z,45.39
2017-05-20T08:40:08.212Z,51.84
2017-05-20T08:50:08.202Z,56.92
2017-05-20T09:00:08.216Z,64.34
2017-05-20T09:10:08.217Z,68.04
2017-05-20T09:20:08.216Z,72.55
2017-05-20T09:30:08.211Z,74.5
2017-05-20T09:40:08.280Z,69.75
2017-05-20T09:50:08.231Z,70.75
2017-05-20T10:00:08.229Z,70.94
2017-05-20T10:10:08.220Z,70.58
2017-05-20T10:20:08.234Z,69.66
2017-05-20T10:30:08.234Z,69.75
2017-05-20T10:40:08.224Z,67.38
2017-05-20T10:50:08.234Z,65.05
2017-05-20T11:00:08.234Z,66.36
2017-05-20T11:10:08.235Z,63.12
2017-05-20T11:20:08.225Z,65.37
2017-05-20T11:30:08.244Z,65.17
2017-05-20T11:40:08.238Z,70.53
2017-05-20T11:50:08.241Z,75.46
2017-05-20T12:00:08.245Z,73.27
2017-05-20T12:10:08.237Z,69.24
2017-05-20T12:20:08.249Z,65.69
2017-05-20T12:30:08.259Z,63.22
2017-05-20T12:40:08.244Z,58.34
2017-05-20T12:50:08.278Z,60.27
2017-05-20T13:00:08.248Z,58.11
2017-05-20T13:10:08.244Z,60.07
2017-05-20T13:20:08.244Z,62.35
2017-05-20T13:30:08.256Z,58.89
2017-05-20T13:40:08.275Z,60.94
2017-05-20T13:50:08.240Z,60.52
2017-05-20T14:00:08.244Z,60.17
2017-05-20T14:10:08.259Z,59.97
2017-05-20T14:20:08.290Z,57.79
2017-05-20T14:30:08.265Z,58.4
2017-05-20T14:40:08.263Z,54.18
2017-05-20T14:50:08.291Z,56.22
2017-05-20T15:00:08.249Z,59.82
2017-05-20T15:10:08.272Z,55.62
2017-05-20T15:20:08.266Z,56.67
2017-05-20T15:30:08.265Z,58.86
2017-05-20T15:40:08.266Z,57.32
2017-05-20T15:50:08.529Z,54.2
2017-05-20T16:00:08.263Z,58.53
2017-05-20T16:10:08.262Z,60.3
2017-05-20T16:20:08.281Z,59.41
2017-05-20T16:30:08.268Z,58.73
2017-05-20T16:40:08.276Z,57.03
2017-05-20T16:50:08.262Z,57.13
2017-05-20T17:00:08.281Z,58.47
2017-05-20T17:10:08.289Z,58.47
2017-05-20T17:20:08.279Z,61.43
2017-05-20T17:30:08.288Z,64.18
2017-05-20T17:40:08.276Z,66.36
2017-05-20T17:50:08.276Z,64.25
2017-05-20T18:00:08.288Z,64.34
2017-05-20T18:10:08.292Z,63.38
2017-05-20T18:20:08.323Z,65.43
2017-05-20T18:30:08.294Z,66.96
2017-05-20T18:40:08.268Z,68.95
2017-05-20T18:50:08.279Z,71.31
2017-05-20T19:00:08.374Z,73.57
2017-05-20T19:10:08.287Z,76.31
2017-05-20T19:20:08.275Z,79.72
2017-05-20T19:30:08.310Z,82.35
2017-05-20T19:40:08.271Z,87.19
2017-05-20T19:50:08.280Z,89.15
2017-05-20T20:00:08.297Z,96.46
2017-05-20T20:10:08.298Z,99.66
2017-05-20T20:20:08.295Z,99.99
2017-05-20T20:30:08.269Z,99.99
2017-05-20T20:40:08.282Z,99.99
2017-05-20T20:50:08.266Z,99.99
2017-05-20T21:00:08.291Z,99.99
2017-05-20T21:10:08.275Z,99.99
2017-05-20T21:20:08.271Z,99.99
2017-05-20T21:30:08.300Z,99.99
2017-05-20T21:40:08.277Z,99.99
2017-05-20T21:50:08.268Z,99.99
2017-05-20T22:00:08.302Z,99.99
2017-05-20T22:10:08.275Z,99.99
2017-05-20T22:20:08.271Z,99.99
2017-05-20T22:30:08.270Z,99.99
2017-05-20T22:40:08.257Z,99.99
2017-05-20T22:50:08.253Z,99.99
2017-05-20T23:00:08.617Z,99.99
2017-05-20T23:10:08.282Z,99.99
2017-05-20T23:20:08.264Z,99.99
2017-05-20T23:30:08.264Z,99.99
2017-05-20T23:40:08.243Z,99.99
2017-05-20T23:50:08.328Z,99.99
